Hlavní strana
METAR-TAF:

METAR-TAF

Letiště :

Osijek, Chorvatsko

zeměpisná šířka: 45-27N, zeměpisná délka: 018-48E, výška: 88 m

Aktuální stav počasí

Zpráva byla vytvořena před 13 minutami, v 17:00 UTC
Východní vítr 9 kt
Teplota 5°C
Vlhkost vzduchu 60%
Tlak 1029 hPa
Viditelnost 10 km a více
Skoro jasno ve výšce 4500 ft

METAR: LDOS 171700Z 10009KT 9999 FEW045 05/M02 Q1029

Čas: 18:13 (17:13 UTC)

Předpověď počasí

Zpráva byla vytvořena před 5 hodinami a 48 minutami, v 11:25 UTC
Předpověď platná od 17 v 12 UTC do 18 v 12 UTC
Východoseverovýchodní vítr 8 kt
Viditelnost 10 km a více
Polojasno ve výšce 3000 ft

TAF: LDOS 171125Z 1712/1812 07008KT 9999 SCT030 TX08/1713Z TN00/1805Z

Stav a předpovědi počasí z více než 4 000 letišť (zprávy METAR a TAF).

Červené a žluté tečky na mapě představují dostupné meteorologické stanice.

Když kurzor umístíte na tečku, zobrazí se název stanice.

Pak kliknutím zobrazíte stav a předpověď počasí.

Chcete-li změnit mapu, kliknutím na zelené tlačítko se znaménkem +mapu přiblížíte, kliknutím na zelené tlačítko se znaménkem – mapu oddálíte a kliknutím na zelené šipky přejdete na sousední mapy.


METAR-TAF: